createdAt,value
2023-01-29T00:00:15.172Z,101509.06
2023-01-29T00:03:04.099Z,101514.78
2023-01-29T00:05:32.115Z,101514.84
2023-01-29T00:08:00.511Z,101514.31
2023-01-29T00:10:28.536Z,101507.91
2023-01-29T00:12:56.870Z,101513.44
2023-01-29T00:15:24.874Z,101511.84
2023-01-29T00:17:53.179Z,101506.25
2023-01-29T00:20:21.202Z,101510.22
2023-01-29T00:22:50.912Z,101506.34
2023-01-29T00:25:18.842Z,101515.66
2023-01-29T00:27:47.130Z,101503.25
2023-01-29T00:30:20.106Z,101517.50
2023-01-29T00:32:48.660Z,101507.91
2023-01-29T00:35:16.641Z,101517.31
2023-01-29T00:37:44.989Z,101515.59
2023-01-29T00:40:13.376Z,101513.97
2023-01-29T00:43:00.491Z,101515.47
2023-01-29T00:45:28.348Z,101525.97
2023-01-29T00:47:56.604Z,101522.81
2023-01-29T00:50:24.619Z,101524.53
2023-01-29T00:52:54.924Z,101526.81
2023-01-29T00:55:23.068Z,101523.28
2023-01-29T00:58:14.415Z,101515.66
2023-01-29T01:00:42.450Z,101522.19
2023-01-29T01:03:10.937Z,101537.41
2023-01-29T01:05:39.814Z,101529.47
2023-01-29T01:08:28.023Z,101529.22
2023-01-29T01:11:01.635Z,101530.38
2023-01-29T01:13:31.577Z,101532.09
2023-01-29T01:16:00.958Z,101533.38
2023-01-29T01:18:32.409Z,101530.53
2023-01-29T01:21:00.442Z,101533.41
2023-01-29T01:23:28.828Z,101533.25
2023-01-29T01:25:57.091Z,101534.44
2023-01-29T01:28:25.765Z,101536.22
2023-01-29T01:30:53.885Z,101539.63
2023-01-29T01:33:22.327Z,101537.38
2023-01-29T01:35:50.456Z,101539.41
2023-01-29T01:38:18.647Z,101537.41
2023-01-29T01:40:46.963Z,101527.81
2023-01-29T01:43:16.418Z,101535.81
2023-01-29T01:45:47.620Z,101532.13
2023-01-29T01:48:18.846Z,101541.69
2023-01-29T01:51:06.578Z,101539.06
2023-01-29T01:53:43.688Z,101532.75
2023-01-29T01:56:18.786Z,101530.78
2023-01-29T01:58:59.314Z,101539.31
2023-01-29T02:01:30.721Z,101531.47
2023-01-29T02:04:26.157Z,101531.91
2023-01-29T02:07:14.718Z,101518.78
2023-01-29T02:10:08.859Z,101525.66
2023-01-29T02:12:38.550Z,101529.75
2023-01-29T02:15:08.485Z,101523.09
2023-01-29T02:17:36.970Z,101529.34
2023-01-29T02:20:21.188Z,101532.50
2023-01-29T02:22:59.454Z,101547.03
2023-01-29T02:25:58.278Z,101547.56
2023-01-29T02:28:35.755Z,101552.06
2023-01-29T02:31:29.006Z,101551.81
2023-01-29T02:34:13.969Z,101554.78
2023-01-29T02:36:51.004Z,101545.72
2023-01-29T02:39:41.204Z,101560.53
2023-01-29T02:42:27.562Z,101554.38
2023-01-29T02:45:13.094Z,101553.00
2023-01-29T02:47:49.379Z,101552.53
2023-01-29T02:50:35.334Z,101560.84
2023-01-29T02:53:14.935Z,101560.84
2023-01-29T02:55:53.762Z,101559.47
2023-01-29T02:58:31.544Z,101553.78
2023-01-29T03:01:06.703Z,101545.56
2023-01-29T03:03:42.198Z,101555.50
2023-01-29T03:06:22.844Z,101541.75
2023-01-29T03:09:15.035Z,101531.31
2023-01-29T03:11:49.083Z,101545.34
2023-01-29T03:15:01.048Z,101548.13
2023-01-29T03:17:37.664Z,101553.25
2023-01-29T03:20:14.165Z,101550.13
2023-01-29T03:22:48.643Z,101546.69
2023-01-29T03:25:39.695Z,101550.53
2023-01-29T03:28:28.921Z,101567.16
2023-01-29T03:31:21.527Z,101561.38
2023-01-29T03:34:24.900Z,101569.06
2023-01-29T03:37:01.575Z,101565.31
2023-01-29T03:39:30.696Z,101564.13
2023-01-29T03:42:22.695Z,101564.75
2023-01-29T03:45:32.466Z,101568.91
2023-01-29T03:48:16.964Z,101574.69
2023-01-29T03:50:58.381Z,101577.97
2023-01-29T03:54:04.456Z,101578.69
2023-01-29T03:57:16.247Z,101574.94
2023-01-29T04:00:18.957Z,101581.47
2023-01-29T04:03:08.072Z,101575.78
2023-01-29T04:05:45.313Z,101580.50
2023-01-29T04:08:28.222Z,101584.88
2023-01-29T04:11:02.121Z,101585.56
2023-01-29T04:13:34.076Z,101578.69
2023-01-29T04:16:06.812Z,101579.78
2023-01-29T04:18:57.844Z,101575.06
2023-01-29T04:21:32.212Z,101565.31
2023-01-29T04:24:00.689Z,101572.91
2023-01-29T04:26:42.943Z,101575.44
2023-01-29T04:29:30.264Z,101572.19
2023-01-29T04:32:04.953Z,101563.28
2023-01-29T04:34:47.801Z,101570.50
2023-01-29T04:37:37.253Z,101569.38
2023-01-29T04:40:27.425Z,101571.47
2023-01-29T04:43:03.004Z,101567.94
2023-01-29T04:45:49.523Z,101568.19
2023-01-29T04:48:30.578Z,101575.38
2023-01-29T04:51:06.411Z,101569.38
2023-01-29T04:53:39.673Z,101582.31
2023-01-29T04:56:19.762Z,101566.72
2023-01-29T04:58:58.175Z,101574.84
2023-01-29T05:01:31.264Z,101576.19
2023-01-29T05:04:04.223Z,101577.56
2023-01-29T05:06:33.374Z,101577.09
2023-01-29T05:09:02.911Z,101574.50
2023-01-29T05:11:33.660Z,101576.59
2023-01-29T05:14:06.992Z,101577.66
2023-01-29T05:16:42.230Z,101576.53
2023-01-29T05:19:13.633Z,101574.38
2023-01-29T05:21:45.790Z,101581.09
2023-01-29T05:24:27.192Z,101583.81
2023-01-29T05:27:14.212Z,101586.22
2023-01-29T05:29:47.227Z,101589.50
2023-01-29T05:32:16.442Z,101590.22
2023-01-29T05:34:44.763Z,101594.75
2023-01-29T05:37:12.832Z,101592.38
2023-01-29T05:39:41.350Z,101589.66
2023-01-29T05:42:09.336Z,101597.16
2023-01-29T05:44:38.724Z,101596.06
2023-01-29T05:47:06.859Z,101585.72
2023-01-29T05:49:38.650Z,101595.94
2023-01-29T05:52:07.055Z,101603.34
2023-01-29T05:54:35.393Z,101594.84
2023-01-29T05:57:03.443Z,101600.91
2023-01-29T05:59:32.833Z,101601.88
2023-01-29T06:02:01.094Z,101608.84
2023-01-29T06:04:29.492Z,101607.03
2023-01-29T06:06:57.527Z,101614.00
2023-01-29T06:09:25.833Z,101608.69
2023-01-29T06:11:53.831Z,101608.44
2023-01-29T06:14:22.210Z,101618.69
2023-01-29T06:16:50.204Z,101620.38
2023-01-29T06:19:18.493Z,101614.38
2023-01-29T06:21:46.623Z,101621.00
2023-01-29T06:24:15.362Z,101627.69
2023-01-29T06:26:43.442Z,101625.88
2023-01-29T06:29:11.732Z,101628.88
2023-01-29T06:31:40.085Z,101627.13
2023-01-29T06:34:09.113Z,101623.19
2023-01-29T06:36:37.235Z,101633.78
2023-01-29T06:39:05.586Z,101638.44
2023-01-29T06:41:33.897Z,101641.16
2023-01-29T06:44:02.375Z,101641.66
2023-01-29T06:46:30.563Z,101644.03
2023-01-29T06:49:01.166Z,101649.56
2023-01-29T06:51:29.462Z,101654.56
2023-01-29T06:53:58.091Z,101653.75
2023-01-29T06:56:26.178Z,101659.72
2023-01-29T06:58:54.723Z,101652.44
2023-01-29T07:01:35.113Z,101654.28
2023-01-29T07:04:04.721Z,101660.84
2023-01-29T07:06:33.280Z,101652.81
2023-01-29T07:09:02.003Z,101657.91
2023-01-29T07:11:30.466Z,101674.09
2023-01-29T07:13:58.816Z,101669.28
2023-01-29T07:16:27.015Z,101671.13
2023-01-29T07:18:55.378Z,101679.03
2023-01-29T07:21:23.692Z,101673.47
2023-01-29T07:23:52.042Z,101680.59
2023-01-29T07:26:20.182Z,101692.78
2023-01-29T07:28:48.559Z,101698.16
2023-01-29T07:31:16.924Z,101704.41
2023-01-29T07:33:45.536Z,101708.81
2023-01-29T07:36:14.162Z,101706.63
2023-01-29T07:38:42.686Z,101705.41
2023-01-29T07:41:12.830Z,101704.53
2023-01-29T07:43:43.522Z,101705.97
2023-01-29T07:46:11.867Z,101724.91
2023-01-29T07:48:40.403Z,101719.19
2023-01-29T07:51:08.525Z,101719.00
2023-01-29T07:53:37.905Z,101726.78
2023-01-29T07:56:06.257Z,101735.03
2023-01-29T07:58:36.657Z,101735.19
2023-01-29T08:01:08.519Z,101734.56
2023-01-29T08:03:37.136Z,101745.13
2023-01-29T08:06:05.433Z,101737.38
2023-01-29T08:08:33.947Z,101732.84
2023-01-29T08:11:03.952Z,101736.31
2023-01-29T08:13:33.981Z,101732.28
2023-01-29T08:16:03.821Z,101738.22
2023-01-29T08:18:33.264Z,101741.13
2023-01-29T08:21:01.970Z,101735.63
2023-01-29T08:23:30.805Z,101745.38
2023-01-29T08:25:59.062Z,101756.16
2023-01-29T08:28:27.580Z,101752.31
2023-01-29T08:30:55.705Z,101758.47
2023-01-29T08:33:38.007Z,101756.16
2023-01-29T08:36:07.742Z,101747.47
2023-01-29T08:38:36.972Z,101755.22
2023-01-29T08:41:05.477Z,101747.03
2023-01-29T08:43:37.358Z,101745.94
2023-01-29T08:46:06.064Z,101744.97
2023-01-29T08:48:35.155Z,101745.53
2023-01-29T08:51:04.722Z,101747.91
2023-01-29T08:53:33.431Z,101743.94
2023-01-29T08:56:01.570Z,101751.97
2023-01-29T08:58:30.947Z,101756.75
2023-01-29T09:01:07.176Z,101753.81
2023-01-29T09:03:35.912Z,101753.50
2023-01-29T09:06:04.120Z,101758.03
2023-01-29T09:08:32.441Z,101757.44
2023-01-29T09:11:00.734Z,101759.47
2023-01-29T09:13:30.164Z,101766.97
2023-01-29T09:16:02.801Z,101761.44
2023-01-29T09:18:31.911Z,101761.03
2023-01-29T09:20:59.954Z,101767.88
2023-01-29T09:23:30.427Z,101779.31
2023-01-29T09:25:59.098Z,101779.63
2023-01-29T09:28:27.963Z,101781.78
2023-01-29T09:30:56.213Z,101779.66
2023-01-29T09:33:25.103Z,101776.84
2023-01-29T09:35:53.101Z,101777.59
2023-01-29T09:38:21.414Z,101780.72
2023-01-29T09:40:59.721Z,101779.66
2023-01-29T09:43:37.593Z,101778.56
2023-01-29T09:46:18.390Z,101782.19
2023-01-29T09:49:29.791Z,101782.94
2023-01-29T09:52:22.443Z,101784.09
2023-01-29T09:55:02.406Z,101780.56
2023-01-29T09:57:54.401Z,101778.63
2023-01-29T10:01:04.251Z,101778.19
2023-01-29T10:03:57.000Z,101768.00
2023-01-29T10:06:28.243Z,101768.00
2023-01-29T10:09:43.612Z,101768.06
2023-01-29T10:12:11.393Z,101771.34
2023-01-29T10:15:14.695Z,101763.00
2023-01-29T10:18:04.015Z,101754.44
2023-01-29T10:20:50.411Z,101757.72
2023-01-29T10:23:39.989Z,101746.94
2023-01-29T10:26:13.272Z,101753.19
2023-01-29T10:28:46.769Z,101745.69
2023-01-29T10:31:25.396Z,101744.56
2023-01-29T10:34:12.140Z,101743.88
2023-01-29T10:36:47.620Z,101744.59
2023-01-29T10:39:20.854Z,101737.41
2023-01-29T10:41:57.469Z,101725.66
2023-01-29T10:44:53.333Z,101726.81
2023-01-29T10:47:46.166Z,101732.28
2023-01-29T10:50:14.060Z,101724.72
2023-01-29T10:53:01.552Z,101721.53
2023-01-29T10:55:40.995Z,101712.53
2023-01-29T10:58:26.414Z,101717.19
2023-01-29T11:00:54.350Z,101705.38
2023-01-29T11:03:33.798Z,101706.41
2023-01-29T11:06:12.171Z,101697.91
2023-01-29T11:08:54.216Z,101692.25
2023-01-29T11:11:25.293Z,101682.50
2023-01-29T11:13:59.855Z,101679.66
2023-01-29T11:16:30.510Z,101672.50
2023-01-29T11:19:02.431Z,101667.03
2023-01-29T11:21:30.381Z,101658.25
2023-01-29T11:24:19.366Z,101662.47
2023-01-29T11:26:50.664Z,101662.31
2023-01-29T11:29:48.439Z,101645.88
2023-01-29T11:32:28.963Z,101647.44
2023-01-29T11:35:26.452Z,101628.88
2023-01-29T11:38:09.292Z,101628.28
2023-01-29T11:40:40.267Z,101633.28
2023-01-29T11:43:33.351Z,101624.13
2023-01-29T11:46:11.535Z,101612.53
2023-01-29T11:48:59.119Z,101606.19
2023-01-29T11:51:38.631Z,101603.78
2023-01-29T11:54:06.781Z,101603.94
2023-01-29T11:56:40.176Z,101595.22
2023-01-29T11:59:29.607Z,101598.50
2023-01-29T12:02:19.537Z,101588.63
2023-01-29T12:04:48.556Z,101593.44
2023-01-29T12:07:19.804Z,101578.34
2023-01-29T12:09:57.682Z,101584.03
2023-01-29T12:12:31.123Z,101575.59
2023-01-29T12:15:17.245Z,101574.34
2023-01-29T12:17:59.201Z,101575.44
2023-01-29T12:21:01.968Z,101573.75
2023-01-29T12:23:50.205Z,101568.47
2023-01-29T12:26:55.596Z,101567.38
2023-01-29T12:29:43.249Z,101569.56
2023-01-29T12:32:38.332Z,101557.38
2023-01-29T12:35:22.805Z,101557.69
2023-01-29T12:38:09.203Z,101547.72
2023-01-29T12:40:48.958Z,101540.41
2023-01-29T12:43:19.486Z,101540.16
2023-01-29T12:45:54.331Z,101545.31
2023-01-29T12:48:28.341Z,101548.75
2023-01-29T12:51:06.752Z,101542.59
2023-01-29T12:53:44.962Z,101539.50
2023-01-29T12:56:20.625Z,101539.34
2023-01-29T12:58:53.381Z,101529.31
2023-01-29T13:01:37.049Z,101528.69
2023-01-29T13:04:29.752Z,101530.50
2023-01-29T13:07:23.886Z,101526.13
2023-01-29T13:09:58.627Z,101520.50
2023-01-29T13:12:27.649Z,101524.25
2023-01-29T13:14:59.552Z,101524.25
2023-01-29T13:17:40.440Z,101516.06
2023-01-29T13:20:29.958Z,101505.41
2023-01-29T13:23:23.119Z,101498.41
2023-01-29T13:25:54.844Z,101500.84
2023-01-29T13:28:26.351Z,101491.66
2023-01-29T13:31:20.473Z,101495.19
2023-01-29T13:34:12.003Z,101490.88
2023-01-29T13:36:52.322Z,101492.31
2023-01-29T13:39:23.723Z,101485.91
2023-01-29T13:41:53.518Z,101495.06
2023-01-29T13:44:27.828Z,101488.78
2023-01-29T13:47:05.596Z,101495.66
2023-01-29T13:49:46.457Z,101487.00
2023-01-29T13:52:27.723Z,101489.34
2023-01-29T13:55:05.456Z,101483.94
2023-01-29T13:57:46.300Z,101480.06
2023-01-29T14:00:21.595Z,101485.31
2023-01-29T14:02:55.426Z,101479.53
2023-01-29T14:05:29.666Z,101480.91
2023-01-29T14:08:09.772Z,101484.25
2023-01-29T14:10:38.332Z,101474.53
2023-01-29T14:13:18.490Z,101476.69
2023-01-29T14:15:56.773Z,101472.84
2023-01-29T14:18:28.009Z,101465.47
2023-01-29T14:20:59.977Z,101467.59
2023-01-29T14:23:30.482Z,101468.34
2023-01-29T14:26:01.461Z,101463.34
2023-01-29T14:28:32.485Z,101466.41
2023-01-29T14:31:01.296Z,101460.56
2023-01-29T14:33:39.795Z,101455.25
2023-01-29T14:36:13.725Z,101456.91
2023-01-29T14:38:48.472Z,101460.50
2023-01-29T14:41:22.839Z,101455.53
2023-01-29T14:43:50.756Z,101460.63
2023-01-29T14:46:34.015Z,101460.84
2023-01-29T14:49:02.783Z,101472.84
2023-01-29T14:51:38.933Z,101473.00
2023-01-29T14:54:25.082Z,101462.91
2023-01-29T14:57:02.616Z,101460.25
2023-01-29T14:59:39.062Z,101467.59
2023-01-29T15:02:22.572Z,101464.88
2023-01-29T15:04:57.135Z,101466.19
2023-01-29T15:07:52.497Z,101469.09
2023-01-29T15:10:38.745Z,101469.19
2023-01-29T15:13:38.596Z,101466.75
2023-01-29T15:16:16.457Z,101464.53
2023-01-29T15:18:44.785Z,101461.31
2023-01-29T15:21:15.432Z,101459.72
2023-01-29T15:23:44.863Z,101457.63
2023-01-29T15:26:19.895Z,101458.94
2023-01-29T15:29:04.594Z,101452.66
2023-01-29T15:31:35.586Z,101460.66
2023-01-29T15:34:06.761Z,101459.34
2023-01-29T15:36:36.883Z,101463.72
2023-01-29T15:39:12.383Z,101463.72
2023-01-29T15:41:40.468Z,101467.28
2023-01-29T15:44:14.982Z,101466.00
2023-01-29T15:46:48.816Z,101472.53
2023-01-29T15:49:25.332Z,101475.06
2023-01-29T15:51:58.664Z,101483.47
2023-01-29T15:54:31.779Z,101475.53
2023-01-29T15:57:01.572Z,101475.88
2023-01-29T15:59:39.508Z,101479.78
2023-01-29T16:02:26.858Z,101475.53
2023-01-29T16:04:56.642Z,101473.97
2023-01-29T16:07:24.947Z,101474.03
2023-01-29T16:09:56.125Z,101469.22
2023-01-29T16:12:24.773Z,101482.28
2023-01-29T16:14:53.531Z,101470.19
2023-01-29T16:17:35.725Z,101470.81
2023-01-29T16:20:07.850Z,101486.25
2023-01-29T16:22:38.064Z,101479.06
2023-01-29T16:25:12.574Z,101482.78
2023-01-29T16:27:43.694Z,101480.78
2023-01-29T16:30:17.781Z,101477.31
2023-01-29T16:32:45.709Z,101468.59
2023-01-29T16:35:17.895Z,101460.13
2023-01-29T16:37:51.177Z,101462.69
2023-01-29T16:40:33.890Z,101467.28
2023-01-29T16:43:18.081Z,101472.97
2023-01-29T16:46:14.704Z,101475.00
2023-01-29T16:48:42.666Z,101477.31
2023-01-29T16:51:21.443Z,101479.28
2023-01-29T16:54:07.236Z,101476.84
2023-01-29T16:56:38.243Z,101487.94
2023-01-29T16:59:07.252Z,101485.38
2023-01-29T17:01:36.796Z,101485.78
2023-01-29T17:04:19.135Z,101496.31
2023-01-29T17:06:56.412Z,101489.97
2023-01-29T17:09:30.153Z,101485.69
2023-01-29T17:12:10.126Z,101482.47
2023-01-29T17:14:38.842Z,101487.63
2023-01-29T17:17:15.881Z,101484.44
2023-01-29T17:19:43.855Z,101488.94
2023-01-29T17:22:15.121Z,101487.28
2023-01-29T17:24:43.091Z,101492.84
2023-01-29T17:27:21.201Z,101494.63
2023-01-29T17:29:49.660Z,101492.25
2023-01-29T17:32:19.096Z,101489.38
2023-01-29T17:34:47.392Z,101501.16
2023-01-29T17:37:17.096Z,101499.81
2023-01-29T17:39:48.464Z,101501.44
2023-01-29T17:42:16.690Z,101504.84
2023-01-29T17:44:45.527Z,101499.00
2023-01-29T17:47:17.461Z,101508.50
2023-01-29T17:49:45.429Z,101518.56
2023-01-29T17:52:13.939Z,101507.41
2023-01-29T17:54:41.965Z,101501.00
2023-01-29T17:57:15.234Z,101509.50
2023-01-29T17:59:44.455Z,101504.97
2023-01-29T18:02:28.855Z,101500.44
2023-01-29T18:04:57.805Z,101500.09
2023-01-29T18:07:26.037Z,101501.97
2023-01-29T18:09:54.898Z,101501.69
2023-01-29T18:12:23.186Z,101499.63
2023-01-29T18:14:53.342Z,101506.19
2023-01-29T18:17:23.491Z,101499.28
2023-01-29T18:19:51.602Z,101489.78
2023-01-29T18:22:20.002Z,101500.44
2023-01-29T18:24:47.948Z,101495.38
2023-01-29T18:27:16.584Z,101496.19
2023-01-29T18:29:44.680Z,101494.59
2023-01-29T18:32:13.129Z,101485.81
2023-01-29T18:34:41.531Z,101482.63
2023-01-29T18:37:12.177Z,101482.13
2023-01-29T18:39:42.009Z,101489.53
2023-01-29T18:42:10.601Z,101486.41
2023-01-29T18:44:38.803Z,101485.88
2023-01-29T18:47:08.136Z,101484.81
2023-01-29T18:49:39.513Z,101482.94
2023-01-29T18:52:08.345Z,101483.78
2023-01-29T18:54:36.262Z,101485.38
2023-01-29T18:57:14.557Z,101485.38
2023-01-29T18:59:52.639Z,101480.31
2023-01-29T19:02:21.018Z,101484.56
2023-01-29T19:04:49.137Z,101489.91
2023-01-29T19:07:17.683Z,101489.91
2023-01-29T19:09:47.187Z,101485.94
2023-01-29T19:12:15.620Z,101490.97
2023-01-29T19:14:43.714Z,101490.44
2023-01-29T19:17:12.087Z,101487.78
2023-01-29T19:19:40.035Z,101478.75
2023-01-29T19:22:08.445Z,101480.63
2023-01-29T19:24:39.420Z,101484.06
2023-01-29T19:27:07.768Z,101487.53
2023-01-29T19:29:35.668Z,101480.63
2023-01-29T19:32:04.205Z,101483.81
2023-01-29T19:34:32.295Z,101490.19
2023-01-29T19:37:00.544Z,101488.00
2023-01-29T19:39:33.180Z,101487.00
2023-01-29T19:42:01.700Z,101484.81
2023-01-29T19:44:29.725Z,101488.06
2023-01-29T19:46:58.130Z,101489.66
2023-01-29T19:49:27.100Z,101490.16
2023-01-29T19:51:59.035Z,101486.13
2023-01-29T19:54:28.117Z,101494.38
2023-01-29T19:56:57.137Z,101492.22
2023-01-29T19:59:25.183Z,101488.53
2023-01-29T20:01:54.563Z,101487.47
2023-01-29T20:04:22.549Z,101483.75
2023-01-29T20:06:53.127Z,101486.13
2023-01-29T20:09:21.085Z,101482.41
2023-01-29T20:11:49.435Z,101484.81
2023-01-29T20:14:17.384Z,101483.75
2023-01-29T20:16:46.725Z,101486.81
2023-01-29T20:19:15.354Z,101484.16
2023-01-29T20:21:49.018Z,101490.25
2023-01-29T20:24:17.025Z,101484.38
2023-01-29T20:26:46.447Z,101486.22
2023-01-29T20:29:15.526Z,101482.69
2023-01-29T20:31:43.897Z,101479.94
2023-01-29T20:34:11.957Z,101477.91
2023-01-29T20:36:40.325Z,101490.44
2023-01-29T20:39:08.825Z,101479.16
2023-01-29T20:41:37.354Z,101480.44
2023-01-29T20:44:05.415Z,101484.06
2023-01-29T20:46:35.443Z,101485.09
2023-01-29T20:49:03.428Z,101487.25
2023-01-29T20:51:31.714Z,101496.03
2023-01-29T20:53:59.705Z,101479.41
2023-01-29T20:56:40.373Z,101485.25
2023-01-29T20:59:11.705Z,101482.50
2023-01-29T21:01:40.003Z,101482.97
2023-01-29T21:04:07.977Z,101478.56
2023-01-29T21:06:36.297Z,101481.22
2023-01-29T21:09:04.301Z,101484.19
2023-01-29T21:11:33.790Z,101477.13
2023-01-29T21:14:02.148Z,101477.84
2023-01-29T21:16:30.811Z,101476.03
2023-01-29T21:18:59.337Z,101474.69
2023-01-29T21:21:29.062Z,101473.63
2023-01-29T21:23:58.665Z,101474.72
2023-01-29T21:26:27.047Z,101475.03
2023-01-29T21:28:54.945Z,101472.63
2023-01-29T21:31:23.299Z,101466.53
2023-01-29T21:33:51.477Z,101471.75
2023-01-29T21:36:19.901Z,101465.69
2023-01-29T21:38:47.914Z,101467.28
2023-01-29T21:41:16.253Z,101473.75
2023-01-29T21:43:45.126Z,101480.53
2023-01-29T21:46:13.572Z,101481.69
2023-01-29T21:48:42.263Z,101478.94
2023-01-29T21:51:10.719Z,101474.81
2023-01-29T21:53:38.625Z,101476.72
2023-01-29T21:56:07.057Z,101473.03
2023-01-29T21:58:34.967Z,101475.88
2023-01-29T22:01:36.725Z,101469.94
2023-01-29T22:03:51.410Z,101469.38
2023-01-29T22:06:21.227Z,101467.31
2023-01-29T22:08:50.364Z,101471.22
2023-01-29T22:11:19.342Z,101475.13
2023-01-29T22:13:47.355Z,101468.34
2023-01-29T22:16:15.633Z,101467.59
2023-01-29T22:18:43.665Z,101468.13
2023-01-29T22:21:11.973Z,101457.25
2023-01-29T22:23:39.972Z,101464.69
2023-01-29T22:26:10.112Z,101466.78
2023-01-29T22:28:38.198Z,101458.91
2023-01-29T22:31:06.628Z,101467.72
2023-01-29T22:33:35.035Z,101455.97
2023-01-29T22:36:04.665Z,101457.88
2023-01-29T22:38:32.695Z,101451.25
2023-01-29T22:41:02.701Z,101451.91
2023-01-29T22:43:30.628Z,101445.91
2023-01-29T22:46:00.042Z,101443.50
2023-01-29T22:48:28.914Z,101446.53
2023-01-29T22:51:11.045Z,101443.78
2023-01-29T22:53:41.660Z,101439.66
2023-01-29T22:56:11.753Z,101443.09
2023-01-29T22:58:41.430Z,101440.69
2023-01-29T23:01:11.038Z,101441.00
2023-01-29T23:03:38.921Z,101438.88
2023-01-29T23:06:07.144Z,101437.88
2023-01-29T23:08:35.177Z,101439.09
2023-01-29T23:11:17.898Z,101442.72
2023-01-29T23:13:52.140Z,101432.28
2023-01-29T23:16:23.498Z,101430.91
2023-01-29T23:18:54.318Z,101440.09
2023-01-29T23:21:25.304Z,101430.50
2023-01-29T23:23:55.543Z,101429.88
2023-01-29T23:26:42.494Z,101423.50
2023-01-29T23:29:10.950Z,101433.53
2023-01-29T23:31:39.768Z,101426.88
2023-01-29T23:34:07.805Z,101428.72
2023-01-29T23:36:36.079Z,101427.41
2023-01-29T23:39:04.270Z,101433.78
2023-01-29T23:41:32.790Z,101432.69
2023-01-29T23:44:00.777Z,101423.72
2023-01-29T23:46:29.764Z,101417.06
2023-01-29T23:48:57.872Z,101422.72
2023-01-29T23:51:26.376Z,101422.72
2023-01-29T23:53:54.521Z,101423.84
2023-01-29T23:56:23.950Z,101419.28
2023-01-29T23:58:56.340Z,101418.19
